Time;durP1;ratioP1;P1;durP2;ratioP2;P2;SDS_P1;SDS_P2;PMS_P1;PMS_P2;Temp;Humidity;BMP_temperature;BMP_pressure;BME280_temperature;BME280_humidity;BME280_pressure;Samples;Min_cycle;Max_cycle;Signal;HPM_P1;HPM_P2
2024/03/26 00:01:14;;;;;;;7.15;1.40;;;5.90;99.90;;;;;;6112713;23;20179;-79
2024/03/26 00:03:40;;;;;;;5.95;1.42;;;5.90;99.90;;;;;;6112351;23;20016;-79
2024/03/26 00:06:07;;;;;;;7.03;1.30;;;5.90;99.90;;;;;;6088344;23;20009;-79
2024/03/26 00:08:33;;;;;;;7.25;1.30;;;5.90;99.90;;;;;;6111789;23;20008;-79
2024/03/26 00:11:00;;;;;;;5.05;1.60;;;5.90;99.90;;;;;;6111005;23;20016;-78
2024/03/26 00:13:26;;;;;;;9.35;2.28;;;5.90;99.90;;;;;;6145434;23;20521;-78
2024/03/26 00:15:53;;;;;;;9.98;2.03;;;5.90;99.90;;;;;;6147560;23;20043;-78
2024/03/26 00:18:19;;;;;;;12.43;2.42;;;5.90;99.90;;;;;;6087716;23;20012;-78
2024/03/26 00:20:46;;;;;;;8.05;1.77;;;5.90;99.90;;;;;;6113203;23;20009;-78
2024/03/26 00:23:13;;;;;;;8.65;1.75;;;5.90;99.90;;;;;;6172582;23;20035;-79
2024/03/26 00:25:39;;;;;;;7.60;1.73;;;5.90;99.90;;;;;;6112094;23;20032;-80
2024/03/26 00:28:06;;;;;;;9.93;2.67;;;5.90;99.90;;;;;;6087805;23;20013;-78
2024/03/26 00:30:32;;;;;;;7.88;1.63;;;5.90;99.90;;;;;;6136234;23;20019;-79
2024/03/26 00:32:58;;;;;;;7.30;1.83;;;5.80;99.90;;;;;;6145417;23;20001;-79
2024/03/26 00:35:25;;;;;;;7.47;2.00;;;5.80;99.90;;;;;;6112881;23;20381;-79
2024/03/26 00:37:51;;;;;;;10.00;2.35;;;5.80;99.90;;;;;;6122814;23;20533;-78
2024/03/26 00:40:17;;;;;;;11.55;1.73;;;5.80;99.90;;;;;;6112298;23;20406;-79
2024/03/26 00:42:44;;;;;;;5.60;1.50;;;5.70;99.90;;;;;;6085399;23;20272;-79
2024/03/26 00:45:10;;;;;;;9.13;2.03;;;5.70;99.90;;;;;;6145890;23;20005;-78
2024/03/26 00:47:36;;;;;;;6.72;1.55;;;5.70;99.90;;;;;;6112796;23;20446;-80
2024/03/26 00:50:03;;;;;;;6.22;1.60;;;5.70;99.90;;;;;;6113667;23;20013;-79
2024/03/26 00:52:29;;;;;;;4.95;1.45;;;5.60;99.90;;;;;;6111918;23;20009;-79
2024/03/26 00:54:56;;;;;;;4.55;1.30;;;5.60;99.90;;;;;;6087540;23;20020;-79
2024/03/26 00:57:22;;;;;;;4.45;1.48;;;5.60;99.90;;;;;;6113482;23;20017;-79
2024/03/26 00:59:48;;;;;;;6.45;1.30;;;5.60;99.90;;;;;;6173251;23;20012;-78
2024/03/26 01:02:14;;;;;;;7.15;1.60;;;5.60;99.90;;;;;;6143959;23;20017;-77
2024/03/26 01:04:41;;;;;;;7.65;1.65;;;5.60;99.90;;;;;;6147558;23;20013;-77
2024/03/26 01:07:07;;;;;;;3.42;1.00;;;5.60;99.90;;;;;;6146303;23;20001;-77
2024/03/26 01:09:33;;;;;;;5.82;1.15;;;5.60;99.90;;;;;;6111174;23;20042;-78
2024/03/26 01:12:00;;;;;;;6.47;1.50;;;5.50;99.90;;;;;;6086362;23;20457;-78
2024/03/26 01:14:26;;;;;;;4.80;1.10;;;5.60;99.90;;;;;;6084940;23;20020;-78
2024/03/26 01:16:53;;;;;;;2.50;1.20;;;5.50;99.90;;;;;;6087667;23;20009;-77
2024/03/26 01:19:21;;;;;;;5.43;1.85;;;5.50;99.90;;;;;;6137144;23;20025;-77
2024/03/26 01:21:47;;;;;;;4.20;1.58;;;5.50;99.90;;;;;;6087764;23;20334;-78
2024/03/26 01:24:14;;;;;;;6.65;2.30;;;5.50;99.90;;;;;;6086072;23;20013;-77
2024/03/26 01:26:40;;;;;;;9.35;1.88;;;5.50;99.90;;;;;;6112756;23;20017;-77
2024/03/26 01:29:06;;;;;;;6.97;1.27;;;5.50;99.90;;;;;;6088211;23;20031;-78
2024/03/26 01:31:32;;;;;;;7.28;1.20;;;5.40;99.90;;;;;;6112136;23;20347;-78
2024/03/26 01:33:59;;;;;;;8.00;1.90;;;5.50;99.90;;;;;;6086847;23;20342;-78
2024/03/26 01:36:25;;;;;;;8.93;2.17;;;5.50;99.90;;;;;;6110790;23;20020;-78
2024/03/26 01:38:52;;;;;;;7.43;2.08;;;5.40;99.90;;;;;;6136058;23;20055;-78
2024/03/26 01:41:18;;;;;;;4.93;1.55;;;5.50;99.90;;;;;;6146710;23;20009;-80
2024/03/26 01:43:44;;;;;;;5.95;1.40;;;5.50;99.90;;;;;;6119473;23;20012;-77
2024/03/26 01:46:11;;;;;;;9.88;1.48;;;5.40;99.90;;;;;;6088267;23;20005;-77
2024/03/26 01:48:37;;;;;;;6.78;1.95;;;5.50;99.90;;;;;;6173158;23;20005;-78
2024/03/26 01:51:04;;;;;;;6.55;1.33;;;5.50;99.90;;;;;;6119911;23;20005;-77
2024/03/26 01:53:31;;;;;;;8.75;1.95;;;5.40;99.90;;;;;;6120647;23;20446;-78
2024/03/26 01:55:58;;;;;;;4.25;0.90;;;5.40;99.90;;;;;;6146933;23;20016;-77
2024/03/26 01:58:26;;;;;;;6.82;1.50;;;5.40;99.90;;;;;;6089391;23;20017;-77
2024/03/26 02:00:58;;;;;;;10.70;1.75;;;5.40;99.90;;;;;;6086638;23;20014;-77
2024/03/26 02:03:25;;;;;;;7.05;1.30;;;5.40;99.90;;;;;;6135646;23;20020;-78
2024/03/26 02:05:51;;;;;;;5.85;1.65;;;5.30;99.90;;;;;;6088592;23;20016;-77
2024/03/26 02:08:18;;;;;;;8.90;2.17;;;5.30;99.90;;;;;;6087229;23;20013;-77
2024/03/26 02:10:45;;;;;;;5.25;1.23;;;5.30;99.90;;;;;;6147053;23;20008;-80
2024/03/26 02:13:11;;;;;;;8.23;2.00;;;5.30;99.90;;;;;;6144406;23;20100;-77
2024/03/26 02:15:37;;;;;;;8.15;2.35;;;5.30;99.90;;;;;;6111147;23;20012;-78
2024/03/26 02:18:04;;;;;;;7.80;1.50;;;5.30;99.90;;;;;;6122711;23;20009;-77
2024/03/26 02:20:31;;;;;;;9.55;1.80;;;5.30;99.90;;;;;;6148537;23;20016;-77
2024/03/26 02:22:58;;;;;;;13.23;1.77;;;5.40;99.90;;;;;;6121538;23;20005;-77
2024/03/26 02:25:24;;;;;;;7.38;1.67;;;5.40;99.90;;;;;;6146692;23;20242;-77
2024/03/26 02:27:50;;;;;;;6.78;1.55;;;5.40;99.90;;;;;;6113104;23;20016;-77
2024/03/26 02:30:17;;;;;;;7.10;1.80;;;5.40;99.90;;;;;;6088173;23;20023;-77
2024/03/26 02:32:43;;;;;;;7.05;1.90;;;5.40;99.90;;;;;;6087763;23;20505;-77
2024/03/26 02:35:09;;;;;;;6.55;1.67;;;5.50;99.90;;;;;;6147344;23;20366;-77
2024/03/26 02:37:36;;;;;;;5.38;1.42;;;5.50;99.90;;;;;;6111918;23;20373;-77
2024/03/26 02:40:04;;;;;;;13.10;1.95;;;5.50;99.90;;;;;;6087989;23;20012;-78
2024/03/26 02:42:30;;;;;;;5.22;1.20;;;5.60;99.90;;;;;;6086924;23;20017;-79
2024/03/26 02:44:57;;;;;;;11.10;2.10;;;5.60;99.90;;;;;;6110772;23;20012;-78
2024/03/26 02:47:23;;;;;;;7.82;1.60;;;5.50;99.90;;;;;;6173953;23;20436;-77
2024/03/26 02:49:49;;;;;;;7.35;1.77;;;5.50;99.90;;;;;;6112776;23;20104;-77
2024/03/26 02:52:15;;;;;;;6.15;1.45;;;5.60;99.90;;;;;;6088809;23;20012;-77
2024/03/26 02:54:42;;;;;;;5.57;2.17;;;5.50;99.90;;;;;;6111897;23;20017;-78
2024/03/26 02:57:08;;;;;;;7.82;1.83;;;5.50;99.90;;;;;;6088130;23;20457;-78
2024/03/26 02:59:34;;;;;;;7.35;1.38;;;5.50;99.90;;;;;;6173630;23;20005;-78
2024/03/26 03:02:02;;;;;;;5.53;1.33;;;5.50;99.90;;;;;;6144195;23;20013;-78
2024/03/26 03:04:28;;;;;;;4.72;1.27;;;5.50;99.90;;;;;;6113435;23;20012;-78
2024/03/26 03:06:54;;;;;;;3.90;1.73;;;5.50;99.90;;;;;;6147569;23;20009;-77
2024/03/26 03:09:22;;;;;;;5.82;1.70;;;5.50;99.90;;;;;;6174803;23;20009;-79
2024/03/26 03:11:48;;;;;;;8.15;1.70;;;5.50;99.90;;;;;;6089968;23;20369;-79
2024/03/26 03:14:14;;;;;;;7.05;2.63;;;5.50;99.90;;;;;;6171495;23;20001;-78
2024/03/26 03:16:41;;;;;;;4.72;1.42;;;5.40;99.90;;;;;;6138595;23;20452;-78
2024/03/26 03:19:07;;;;;;;6.13;1.38;;;5.40;99.90;;;;;;6138582;23;20017;-78
2024/03/26 03:21:34;;;;;;;6.05;1.38;;;5.40;99.90;;;;;;6114044;23;20020;-78
2024/03/26 03:24:00;;;;;;;4.82;1.67;;;5.40;99.90;;;;;;6174384;23;20016;-79
2024/03/26 03:26:27;;;;;;;4.72;1.27;;;5.40;99.90;;;;;;6113732;23;20016;-79
2024/03/26 03:28:53;;;;;;;5.10;1.17;;;5.40;99.90;;;;;;6137774;23;20013;-78
2024/03/26 03:31:20;;;;;;;7.40;1.60;;;5.30;99.90;;;;;;6113085;23;20020;-77
2024/03/26 03:33:46;;;;;;;6.93;1.52;;;5.30;99.90;;;;;;6088591;23;20044;-78
2024/03/26 03:36:12;;;;;;;9.10;1.75;;;5.30;99.90;;;;;;6138121;23;20457;-79
2024/03/26 03:38:39;;;;;;;7.82;1.60;;;5.30;99.90;;;;;;6123645;23;20341;-79
2024/03/26 03:41:05;;;;;;;4.05;1.30;;;5.30;99.90;;;;;;6113170;23;20009;-79
2024/03/26 03:43:31;;;;;;;7.03;1.77;;;5.30;99.90;;;;;;6110949;23;20017;-79
2024/03/26 03:45:58;;;;;;;7.72;1.75;;;5.30;99.90;;;;;;6137247;23;20024;-78
2024/03/26 03:48:24;;;;;;;6.82;1.90;;;5.30;99.90;;;;;;6147736;23;20369;-78
2024/03/26 03:50:50;;;;;;;8.48;2.22;;;5.30;99.90;;;;;;6147338;23;20377;-79
2024/03/26 03:53:17;;;;;;;7.22;1.25;;;5.30;99.90;;;;;;6174126;23;20020;-78
2024/03/26 03:55:44;;;;;;;4.63;1.38;;;5.20;99.90;;;;;;6123408;23;20013;-79
2024/03/26 03:58:10;;;;;;;6.22;1.58;;;5.20;99.90;;;;;;6113263;23;20009;-78
2024/03/26 04:00:36;;;;;;;5.68;1.58;;;5.20;99.90;;;;;;6137946;23;20013;-78
2024/03/26 04:03:03;;;;;;;5.13;1.63;;;5.20;99.90;;;;;;6140076;23;20016;-78
2024/03/26 04:05:29;;;;;;;8.73;1.83;;;5.20;99.90;;;;;;6113671;23;20016;-79
2024/03/26 04:07:56;;;;;;;7.05;1.55;;;5.10;99.90;;;;;;6124064;23;20023;-78
2024/03/26 04:10:22;;;;;;;6.80;2.42;;;5.10;99.90;;;;;;6089195;23;20438;-78
2024/03/26 04:12:49;;;;;;;8.10;2.13;;;5.20;99.90;;;;;;6122482;23;20032;-78
2024/03/26 04:15:15;;;;;;;6.32;1.65;;;5.20;99.90;;;;;;6134485;23;20521;-78
2024/03/26 04:17:41;;;;;;;4.78;2.03;;;5.10;99.90;;;;;;6112965;23;20009;-79
2024/03/26 04:20:08;;;;;;;5.75;1.65;;;5.10;99.90;;;;;;6147743;23;20001;-79
2024/03/26 04:22:35;;;;;;;8.98;2.38;;;5.10;99.90;;;;;;6146490;23;20465;-80
2024/03/26 04:25:01;;;;;;;4.13;1.17;;;5.10;99.90;;;;;;6176302;23;20005;-79
2024/03/26 04:27:28;;;;;;;4.90;1.65;;;5.00;99.90;;;;;;6139413;23;20013;-77
2024/03/26 04:29:54;;;;;;;5.55;2.00;;;5.00;99.90;;;;;;6090914;23;20016;-77
2024/03/26 04:32:20;;;;;;;5.55;1.35;;;5.00;99.90;;;;;;6124429;23;20012;-78
2024/03/26 04:34:47;;;;;;;6.07;2.05;;;5.00;99.90;;;;;;6089605;23;20073;-78
2024/03/26 04:37:13;;;;;;;6.43;2.05;;;5.00;99.90;;;;;;6140329;23;20001;-79
2024/03/26 04:39:39;;;;;;;6.65;1.30;;;4.90;99.90;;;;;;6115921;23;20017;-79
2024/03/26 04:42:05;;;;;;;5.70;1.75;;;4.90;99.90;;;;;;6176655;23;20005;-80
2024/03/26 04:44:32;;;;;;;5.32;1.38;;;4.90;99.90;;;;;;6114257;23;20013;-78
2024/03/26 04:46:58;;;;;;;6.10;1.80;;;4.80;99.90;;;;;;6114994;23;20277;-78
2024/03/26 04:49:24;;;;;;;9.40;1.90;;;4.90;99.90;;;;;;6115073;23;20431;-78
2024/03/26 04:51:51;;;;;;;4.57;1.25;;;4.80;99.90;;;;;;6118674;23;20009;-78
2024/03/26 04:54:17;;;;;;;6.10;1.63;;;4.80;99.90;;;;;;6138572;23;20326;-79
2024/03/26 04:56:43;;;;;;;8.10;2.03;;;4.80;99.90;;;;;;6150549;23;20013;-79
2024/03/26 04:59:10;;;;;;;10.82;2.80;;;4.70;99.90;;;;;;6149989;23;20430;-79
2024/03/26 05:01:37;;;;;;;5.28;1.42;;;4.70;99.90;;;;;;6140248;23;20021;-78
2024/03/26 05:04:03;;;;;;;6.68;1.95;;;4.70;99.90;;;;;;6137948;23;20005;-78
2024/03/26 05:06:29;;;;;;;6.50;2.05;;;4.70;99.90;;;;;;6114204;23;20013;-78
2024/03/26 05:08:56;;;;;;;7.68;2.63;;;4.70;99.90;;;;;;6124862;23;20005;-78
2024/03/26 05:11:22;;;;;;;4.45;1.60;;;4.70;99.90;;;;;;6090335;23;20448;-79
2024/03/26 05:13:49;;;;;;;6.85;1.58;;;4.70;99.90;;;;;;6137882;23;20012;-78
2024/03/26 05:16:15;;;;;;;5.25;1.63;;;4.60;99.90;;;;;;6147468;23;20008;-78
2024/03/26 05:18:41;;;;;;;5.95;1.58;;;4.60;99.90;;;;;;6113675;23;20009;-78
2024/03/26 05:21:07;;;;;;;4.65;1.73;;;4.60;99.90;;;;;;6139218;23;20016;-78
2024/03/26 05:23:34;;;;;;;8.32;1.95;;;4.60;99.90;;;;;;6136895;23;20559;-78
2024/03/26 05:26:00;;;;;;;5.07;1.65;;;4.60;99.90;;;;;;6089328;23;20024;-78
2024/03/26 05:28:27;;;;;;;8.25;1.70;;;4.60;99.90;;;;;;6114273;23;20461;-78
2024/03/26 05:30:53;;;;;;;5.80;1.98;;;4.60;99.90;;;;;;6115170;23;20028;-78
2024/03/26 05:33:19;;;;;;;5.97;1.95;;;4.60;99.90;;;;;;6149419;23;20012;-77
2024/03/26 05:35:46;;;;;;;4.10;1.58;;;4.60;99.90;;;;;;6114152;23;20005;-78
2024/03/26 05:38:12;;;;;;;5.17;1.77;;;4.60;99.90;;;;;;6149742;23;20016;-77
2024/03/26 05:40:38;;;;;;;4.18;1.60;;;4.60;99.90;;;;;;6114716;23;20009;-78
2024/03/26 05:43:05;;;;;;;5.60;2.08;;;4.60;99.90;;;;;;6124143;23;20521;-77
2024/03/26 05:45:32;;;;;;;5.50;1.33;;;4.60;99.90;;;;;;6149140;23;20012;-78
2024/03/26 05:47:58;;;;;;;4.93;2.05;;;4.60;99.90;;;;;;6174049;23;20013;-77
2024/03/26 05:50:24;;;;;;;7.40;2.38;;;4.60;99.90;;;;;;6175065;23;20563;-78
2024/03/26 05:52:51;;;;;;;5.97;1.92;;;4.60;99.90;;;;;;6088850;23;20020;-78
2024/03/26 05:55:17;;;;;;;5.90;1.80;;;4.60;99.90;;;;;;6148523;23;20293;-77
2024/03/26 05:57:44;;;;;;;6.50;1.52;;;4.60;99.90;;;;;;6148608;23;20013;-78
2024/03/26 06:00:11;;;;;;;5.15;1.65;;;4.70;99.90;;;;;;6139159;23;20024;-78
2024/03/26 06:02:37;;;;;;;4.57;1.60;;;4.70;99.90;;;;;;6138635;23;20023;-77
2024/03/26 06:05:04;;;;;;;6.33;2.10;;;4.70;99.90;;;;;;6137923;23;20016;-78
2024/03/26 06:07:30;;;;;;;6.45;2.08;;;4.80;99.90;;;;;;6088706;23;20009;-78
2024/03/26 06:09:56;;;;;;;5.13;1.70;;;4.80;99.90;;;;;;6089061;23;20338;-78
2024/03/26 06:12:23;;;;;;;5.88;1.67;;;4.80;99.90;;;;;;6121619;23;20012;-78
2024/03/26 06:14:50;;;;;;;5.85;2.22;;;4.90;99.90;;;;;;6173065;23;20657;-78
2024/03/26 06:17:16;;;;;;;5.53;2.00;;;4.90;99.90;;;;;;6147771;23;20005;-77
2024/03/26 06:19:42;;;;;;;5.97;2.00;;;5.00;99.90;;;;;;6122733;23;20001;-78
2024/03/26 06:22:09;;;;;;;4.05;1.55;;;5.10;99.90;;;;;;6146550;23;20061;-77
2024/03/26 06:24:35;;;;;;;4.47;1.52;;;5.10;99.90;;;;;;6135317;23;20016;-77
2024/03/26 06:27:01;;;;;;;4.53;1.45;;;5.20;99.90;;;;;;6112597;23;20013;-77
2024/03/26 06:29:28;;;;;;;7.35;2.33;;;5.20;99.90;;;;;;6137124;23;20013;-77
2024/03/26 06:31:54;;;;;;;7.95;1.95;;;5.30;99.90;;;;;;6148423;23;20012;-77
2024/03/26 06:34:20;;;;;;;4.82;1.90;;;5.30;99.90;;;;;;6112485;23;20009;-77
2024/03/26 06:36:47;;;;;;;6.07;2.15;;;5.40;99.90;;;;;;6148120;23;20734;-77
2024/03/26 06:39:17;;;;;;;5.30;1.50;;;5.50;99.90;;;;;;6175852;23;20005;-77
2024/03/26 06:41:44;;;;;;;5.20;1.98;;;5.60;99.90;;;;;;6090246;23;20013;-79
2024/03/26 06:44:11;;;;;;;6.45;2.25;;;5.70;99.90;;;;;;6138050;23;20488;-77
2024/03/26 06:46:39;;;;;;;7.28;2.50;;;5.90;99.90;;;;;;6149887;23;20023;-78
2024/03/26 06:49:05;;;;;;;7.78;2.17;;;6.00;99.90;;;;;;6148812;23;20016;-77
2024/03/26 06:51:31;;;;;;;6.22;2.97;;;6.10;99.90;;;;;;6144442;23;20429;-78
2024/03/26 06:53:57;;;;;;;6.13;1.98;;;6.20;99.90;;;;;;6112906;23;20444;-78
2024/03/26 06:56:24;;;;;;;7.90;2.28;;;6.30;99.90;;;;;;6089294;23;20073;-77
2024/03/26 06:58:51;;;;;;;6.25;1.98;;;6.30;99.90;;;;;;6139174;23;20315;-77
2024/03/26 07:01:18;;;;;;;7.45;2.28;;;6.30;99.90;;;;;;6138766;23;20016;-77
2024/03/26 07:03:44;;;;;;;4.45;1.63;;;6.30;99.90;;;;;;6113246;23;20453;-78
2024/03/26 07:06:10;;;;;;;6.10;1.88;;;6.30;99.90;;;;;;6148907;23;20001;-78
2024/03/26 07:08:36;;;;;;;4.40;1.88;;;6.30;99.90;;;;;;6138057;23;20017;-78
2024/03/26 07:11:03;;;;;;;7.35;2.45;;;6.30;99.90;;;;;;6174792;23;20005;-77
2024/03/26 07:13:30;;;;;;;5.35;1.83;;;6.30;99.90;;;;;;6146840;23;20194;-77
2024/03/26 07:15:57;;;;;;;4.65;1.67;;;6.40;99.90;;;;;;6138006;23;20319;-77
2024/03/26 07:18:24;;;;;;;8.48;2.67;;;6.40;99.90;;;;;;6113146;23;20009;-78
2024/03/26 07:20:50;;;;;;;4.85;2.00;;;6.50;99.90;;;;;;6124402;23;20617;-78
2024/03/26 07:23:16;;;;;;;5.90;2.30;;;6.50;99.90;;;;;;6112296;23;20009;-78
2024/03/26 07:25:43;;;;;;;6.18;2.40;;;6.60;99.90;;;;;;6149084;23;20009;-78
2024/03/26 07:28:09;;;;;;;4.25;1.60;;;6.70;99.90;;;;;;6089512;23;20085;-78
2024/03/26 07:30:35;;;;;;;6.32;2.08;;;6.80;99.90;;;;;;6172262;23;20012;-78
2024/03/26 07:33:02;;;;;;;4.15;1.92;;;6.90;99.90;;;;;;6137887;23;20013;-77
2024/03/26 07:35:30;;;;;;;4.80;2.13;;;6.90;99.90;;;;;;6113954;23;20402;-77
2024/03/26 07:37:56;;;;;;;4.28;1.50;;;7.00;99.90;;;;;;6114496;23;20005;-78
2024/03/26 07:40:22;;;;;;;7.28;2.15;;;7.10;99.90;;;;;;6090240;23;20012;-78
2024/03/26 07:42:48;;;;;;;5.07;2.17;;;7.10;99.90;;;;;;6124134;23;20001;-77
2024/03/26 07:45:15;;;;;;;4.43;2.13;;;7.20;99.90;;;;;;6175367;23;20005;-78
2024/03/26 07:47:42;;;;;;;6.88;2.10;;;7.30;99.90;;;;;;6176030;23;20013;-79
2024/03/26 07:50:08;;;;;;;3.20;1.55;;;7.40;99.90;;;;;;6177649;23;20009;-78
2024/03/26 07:52:35;;;;;;;6.10;2.30;;;7.50;99.90;;;;;;6168675;23;20055;-78
2024/03/26 07:55:03;;;;;;;6.47;2.50;;;7.70;99.90;;;;;;6091858;23;20021;-79
2024/03/26 07:57:30;;;;;;;10.32;2.63;;;7.80;99.90;;;;;;6116498;23;20013;-79
2024/03/26 07:59:56;;;;;;;4.43;1.55;;;7.80;99.90;;;;;;6116663;23;20031;-79
2024/03/26 08:02:22;;;;;;;4.20;1.70;;;7.80;99.90;;;;;;6092507;23;20039;-80
2024/03/26 08:04:52;;;;;;;7.65;1.75;;;7.90;99.90;;;;;;6115690;23;20016;-81
2024/03/26 08:07:18;;;;;;;5.28;2.28;;;8.00;99.90;;;;;;6151343;23;20472;-79
2024/03/26 08:09:45;;;;;;;6.40;1.70;;;8.20;99.90;;;;;;6141624;23;20009;-80
2024/03/26 08:12:12;;;;;;;5.57;1.80;;;8.30;99.90;;;;;;6126048;23;20478;-80
2024/03/26 08:14:38;;;;;;;6.75;1.50;;;8.50;99.90;;;;;;6113947;23;20028;-79
2024/03/26 08:17:05;;;;;;;4.18;1.65;;;8.60;99.90;;;;;;6177085;23;20009;-79
2024/03/26 08:19:31;;;;;;;4.60;1.52;;;8.80;99.90;;;;;;6177188;23;20005;-80
2024/03/26 08:21:57;;;;;;;4.70;1.70;;;8.90;99.90;;;;;;6119031;23;20023;-81
2024/03/26 08:24:24;;;;;;;5.82;1.42;;;9.00;99.90;;;;;;6115223;23;20009;-80
2024/03/26 08:26:50;;;;;;;4.22;1.50;;;8.90;99.90;;;;;;6176310;23;20237;-79
2024/03/26 08:29:16;;;;;;;6.15;1.30;;;8.90;99.90;;;;;;6140093;23;20017;-80
2024/03/26 08:31:43;;;;;;;6.45;1.83;;;9.00;99.90;;;;;;6153093;23;20009;-79
2024/03/26 08:34:10;;;;;;;4.32;1.65;;;9.00;99.90;;;;;;6150044;23;20445;-79
2024/03/26 08:36:36;;;;;;;4.93;1.60;;;8.90;99.90;;;;;;6149698;23;20009;-79
2024/03/26 08:39:03;;;;;;;5.80;1.70;;;8.90;99.90;;;;;;6114232;23;20009;-78
2024/03/26 08:41:29;;;;;;;6.45;1.50;;;8.90;99.90;;;;;;6116064;23;20483;-80
2024/03/26 08:43:55;;;;;;;7.03;1.95;;;8.90;99.90;;;;;;6139392;23;20009;-79
2024/03/26 08:46:22;;;;;;;6.10;1.70;;;8.90;99.90;;;;;;6090346;23;20012;-80
2024/03/26 08:48:48;;;;;;;7.40;1.55;;;9.00;99.90;;;;;;6114631;23;20009;-81
2024/03/26 08:51:14;;;;;;;6.13;1.80;;;9.00;99.90;;;;;;6116705;23;20012;-79
2024/03/26 08:53:40;;;;;;;3.95;1.60;;;9.00;99.90;;;;;;6090384;23;20017;-80
2024/03/26 08:56:07;;;;;;;2.95;1.17;;;9.00;99.90;;;;;;6115480;23;20013;-81
2024/03/26 08:58:33;;;;;;;4.38;1.95;;;9.00;99.90;;;;;;6176145;23;20012;-80
2024/03/26 09:00:59;;;;;;;5.97;2.28;;;9.10;99.90;;;;;;6176702;23;20298;-80
2024/03/26 09:03:26;;;;;;;7.28;2.33;;;9.10;99.90;;;;;;6165291;23;20015;-81
2024/03/26 09:05:53;;;;;;;4.55;1.50;;;9.10;99.90;;;;;;6089707;23;20009;-85
2024/03/26 09:08:20;;;;;;;5.35;1.70;;;9.20;99.90;;;;;;6123718;23;20005;-81
2024/03/26 09:10:46;;;;;;;5.63;2.17;;;9.30;99.90;;;;;;6114573;23;20016;-79
2024/03/26 09:13:13;;;;;;;5.93;1.60;;;9.30;99.90;;;;;;6123465;23;20013;-79
2024/03/26 09:15:39;;;;;;;2.92;1.50;;;9.30;99.90;;;;;;6090386;23;20386;-80
2024/03/26 09:18:10;;;;;;;4.07;1.48;;;9.40;99.90;;;;;;6113127;23;20426;-78
2024/03/26 09:20:37;;;;;;;3.97;1.70;;;9.40;99.90;;;;;;6114900;23;20016;-79
2024/03/26 09:23:03;;;;;;;4.85;1.77;;;9.50;99.90;;;;;;6114187;23;20009;-79
2024/03/26 09:25:29;;;;;;;6.10;1.50;;;9.50;99.90;;;;;;6090113;23;20012;-79
2024/03/26 09:27:55;;;;;;;4.38;1.48;;;9.50;99.90;;;;;;6125444;23;20454;-78
2024/03/26 09:30:22;;;;;;;6.88;3.38;;;9.60;99.90;;;;;;6124983;23;20053;-77
2024/03/26 09:32:48;;;;;;;7.82;3.28;;;9.70;99.90;;;;;;6148466;23;20009;-81
2024/03/26 09:35:14;;;;;;;5.38;2.28;;;9.90;99.90;;;;;;6139658;23;20016;-80
2024/03/26 09:37:42;;;;;;;4.97;1.70;;;9.90;99.90;;;;;;6089657;23;20016;-81
2024/03/26 09:40:11;;;;;;;3.95;1.30;;;9.90;99.90;;;;;;6114204;23;20005;-80
2024/03/26 09:42:40;;;;;;;4.90;1.65;;;10.00;99.90;;;;;;6174689;23;20348;-78
2024/03/26 09:45:11;;;;;;;5.85;1.95;;;10.00;99.90;;;;;;6114693;23;20020;-78
2024/03/26 09:47:41;;;;;;;4.53;1.52;;;10.00;99.90;;;;;;6148609;23;20016;-80
2024/03/26 09:50:10;;;;;;;5.18;1.92;;;10.20;99.90;;;;;;6149942;23;20012;-79
2024/03/26 09:52:40;;;;;;;7.45;2.15;;;10.30;99.90;;;;;;6114757;23;20040;-81
2024/03/26 09:55:09;;;;;;;5.32;1.88;;;10.40;99.90;;;;;;6137956;23;20473;-81
2024/03/26 09:57:35;;;;;;;7.80;2.28;;;10.50;99.90;;;;;;6113920;23;20345;-81
2024/03/26 10:00:02;;;;;;;4.45;1.98;;;10.60;99.90;;;;;;6112736;23;20009;-81
2024/03/26 10:02:31;;;;;;;7.22;1.45;;;10.70;99.90;;;;;;6137338;23;20768;-81
2024/03/26 10:04:57;;;;;;;5.25;1.25;;;10.80;99.90;;;;;;6148600;23;20013;-81
2024/03/26 10:07:24;;;;;;;5.68;1.50;;;10.90;99.90;;;;;;6123849;23;20020;-81
2024/03/26 10:09:50;;;;;;;3.22;1.25;;;10.90;99.90;;;;;;6114464;23;20437;-80
2024/03/26 10:12:17;;;;;;;5.53;1.70;;;10.90;99.90;;;;;;6090241;23;20017;-82
2024/03/26 10:14:43;;;;;;;3.47;1.20;;;11.00;99.90;;;;;;6112929;23;20017;-80
2024/03/26 10:17:10;;;;;;;3.67;1.52;;;11.00;99.90;;;;;;6172871;23;20430;-81
2024/03/26 10:19:36;;;;;;;4.40;1.45;;;11.10;99.90;;;;;;6137950;23;20020;-83
2024/03/26 10:22:03;;;;;;;5.50;1.20;;;11.10;99.90;;;;;;6088886;23;20016;-82
2024/03/26 10:24:29;;;;;;;5.47;1.50;;;11.20;99.90;;;;;;6112210;23;20009;-77
2024/03/26 10:26:56;;;;;;;6.30;1.65;;;11.20;99.90;;;;;;6174636;23;20005;-79
2024/03/26 10:29:22;;;;;;;8.32;1.58;;;11.30;99.90;;;;;;6112048;23;20398;-80
2024/03/26 10:31:49;;;;;;;4.82;1.65;;;11.30;99.90;;;;;;6122424;23;20008;-81
2024/03/26 10:34:24;;;;;;;6.82;2.75;;;11.40;99.90;;;;;;6112529;23;20009;-78
2024/03/26 10:36:55;;;;;;;2.78;1.50;;;11.60;99.90;;;;;;6138135;23;20255;-80
2024/03/26 10:39:26;;;;;;;5.30;1.50;;;11.60;99.90;;;;;;6114817;23;20005;-82
2024/03/26 10:41:53;;;;;;;4.15;1.60;;;11.60;99.90;;;;;;6150026;23;20438;-82
2024/03/26 10:44:20;;;;;;;5.80;1.80;;;11.60;99.90;;;;;;6149196;23;21006;-83
2024/03/26 10:46:50;;;;;;;2.78;1.40;;;11.60;99.90;;;;;;6117151;23;20013;-80
2024/03/26 10:49:20;;;;;;;3.92;1.33;;;11.50;99.90;;;;;;6116836;23;20013;-79
2024/03/26 10:51:47;;;;;;;4.78;1.40;;;11.60;99.90;;;;;;6115171;23;20477;-84
2024/03/26 10:54:15;;;;;;;3.42;1.17;;;11.70;99.90;;;;;;6137465;23;20017;-83
2024/03/26 10:56:46;;;;;;;6.65;1.65;;;11.70;99.90;;;;;;6114272;23;20398;-83
2024/03/26 10:59:13;;;;;;;8.48;1.48;;;11.80;99.90;;;;;;6140117;23;20008;-86
2024/03/26 11:01:41;;;;;;;4.35;1.30;;;11.80;99.90;;;;;;6089191;23;20013;-79
2024/03/26 11:04:08;;;;;;;3.88;1.52;;;11.90;99.90;;;;;;6088155;23;20028;-81
2024/03/26 11:06:34;;;;;;;4.03;1.70;;;11.90;99.90;;;;;;6115111;23;20423;-84
2024/03/26 11:09:06;;;;;;;4.97;1.05;;;11.90;99.90;;;;;;6115152;23;20435;-80
2024/03/26 11:11:34;;;;;;;2.83;1.03;;;12.00;99.90;;;;;;6149296;23;20771;-78
2024/03/26 11:14:02;;;;;;;4.10;1.48;;;12.20;99.90;;;;;;6147757;23;20239;-79
2024/03/26 11:16:42;;;;;;;4.00;1.45;;;12.40;99.90;;;;;;6113936;23;20980;-78
2024/03/26 11:19:19;;;;;;;4.80;1.42;;;12.60;99.90;;;;;;6111508;23;20516;-79
2024/03/26 11:21:48;;;;;;;5.97;1.50;;;12.80;99.90;;;;;;6173879;23;20012;-78
2024/03/26 11:24:23;;;;;;;6.60;1.88;;;12.80;99.90;;;;;;6175705;23;20023;-77
2024/03/26 11:26:51;;;;;;;6.40;1.10;;;12.70;99.90;;;;;;6174682;23;20001;-78
2024/03/26 11:29:18;;;;;;;3.63;1.30;;;12.60;99.90;;;;;;6166647;23;20008;-78
2024/03/26 11:31:45;;;;;;;7.63;2.38;;;12.70;99.90;;;;;;6095573;23;20013;-78
2024/03/26 11:34:13;;;;;;;5.15;1.67;;;12.80;99.90;;;;;;6148047;23;20005;-79
2024/03/26 11:36:41;;;;;;;4.70;1.13;;;13.10;99.90;;;;;;6089560;23;20016;-79
2024/03/26 11:39:08;;;;;;;3.92;1.88;;;13.30;99.90;;;;;;6113106;23;20016;-79
2024/03/26 11:41:35;;;;;;;4.15;2.00;;;13.50;99.90;;;;;;6114373;23;20008;-79
2024/03/26 11:44:02;;;;;;;4.30;1.42;;;13.60;99.90;;;;;;6148840;23;20024;-79
2024/03/26 11:46:30;;;;;;;5.82;2.15;;;13.60;99.90;;;;;;6114734;23;20013;-80
2024/03/26 11:48:57;;;;;;;4.40;1.30;;;13.70;99.90;;;;;;6116102;23;20044;-80
2024/03/26 11:51:23;;;;;;;4.22;1.13;;;13.70;99.90;;;;;;6116008;23;20009;-79
2024/03/26 11:53:50;;;;;;;4.35;1.25;;;13.70;99.90;;;;;;6114595;23;20027;-76
2024/03/26 11:56:17;;;;;;;4.30;1.52;;;13.70;99.90;;;;;;6150037;23;20307;-78
2024/03/26 11:58:47;;;;;;;3.20;1.10;;;13.70;99.90;;;;;;6139656;23;20345;-78
2024/03/26 12:01:15;;;;;;;4.28;1.15;;;14.00;99.90;;;;;;6089865;23;20511;-78
2024/03/26 12:03:56;;;;;;;3.28;1.13;;;14.40;99.90;;;;;;6112069;23;20341;-78
2024/03/26 12:06:24;;;;;;;2.95;0.85;;;14.80;99.90;;;;;;6123528;23;20013;-79
2024/03/26 12:08:55;;;;;;;3.35;1.15;;;15.20;99.90;;;;;;6113617;23;20036;-79
2024/03/26 12:11:23;;;;;;;3.47;1.00;;;15.40;99.90;;;;;;6088879;23;20009;-80
2024/03/26 12:13:51;;;;;;;3.60;1.20;;;15.60;99.90;;;;;;6140934;23;20009;-80
2024/03/26 12:16:25;;;;;;;2.70;1.00;;;15.70;99.90;;;;;;6138610;23;20009;-78
2024/03/26 12:18:55;;;;;;;5.63;0.95;;;15.70;99.90;;;;;;6139738;23;20005;-79
2024/03/26 12:21:24;;;;;;;5.32;1.23;;;15.60;99.80;;;;;;6115281;23;20009;-79
2024/03/26 12:23:51;;;;;;;3.65;0.95;;;15.60;99.60;;;;;;6113641;23;20009;-79
2024/03/26 12:26:19;;;;;;;4.18;1.40;;;15.30;99.30;;;;;;6137104;23;20017;-79
2024/03/26 12:28:47;;;;;;;3.70;0.88;;;15.10;99.50;;;;;;6148996;23;20013;-79
2024/03/26 12:31:16;;;;;;;3.00;1.00;;;15.00;99.80;;;;;;6090795;23;20008;-80
2024/03/26 12:33:44;;;;;;;2.95;1.00;;;14.80;99.50;;;;;;6112737;23;20327;-76
2024/03/26 12:36:11;;;;;;;4.15;1.00;;;14.60;99.90;;;;;;6138043;23;20367;-80
2024/03/26 12:38:38;;;;;;;4.90;1.10;;;14.70;99.90;;;;;;6178328;23;20009;-79
2024/03/26 12:41:05;;;;;;;4.53;1.52;;;14.80;99.90;;;;;;6151084;23;20469;-79
2024/03/26 12:43:34;;;;;;;3.10;1.02;;;14.90;99.90;;;;;;6175382;23;20005;-79
2024/03/26 12:46:01;;;;;;;4.05;0.93;;;15.30;99.90;;;;;;6139989;23;20005;-79
2024/03/26 12:48:28;;;;;;;6.35;1.63;;;15.70;99.90;;;;;;6115403;23;20013;-80
2024/03/26 12:50:54;;;;;;;5.75;1.92;;;16.00;99.30;;;;;;6139578;23;20013;-79
2024/03/26 12:53:21;;;;;;;3.25;1.60;;;16.30;99.20;;;;;;6148869;23;20009;-80